sensor_id;sensor_type;location;lat;lon;timestamp;temperature;humidity
64493;DHT22;50868;24.150;-110.320;2023-07-31T00:00:14;42.50;88.00
64493;DHT22;50868;24.150;-110.320;2023-07-31T00:02:42;42.50;88.00
64493;DHT22;50868;24.150;-110.320;2023-07-31T00:05:09;41.90;89.90
64493;DHT22;50868;24.150;-110.320;2023-07-31T00:07:36;41.60;90.90
64493;DHT22;50868;24.150;-110.320;2023-07-31T00:10:03;42.10;89.20
64493;DHT22;50868;24.150;-110.320;2023-07-31T00:12:31;42.50;86.40
64493;DHT22;50868;24.150;-110.320;2023-07-31T00:14:58;42.70;86.90
64493;DHT22;50868;24.150;-110.320;2023-07-31T00:17:25;43.20;89.60
64493;DHT22;50868;24.150;-110.320;2023-07-31T00:19:52;43.40;90.00
64493;DHT22;50868;24.150;-110.320;2023-07-31T00:22:19;43.70;90.20
64493;DHT22;50868;24.150;-110.320;2023-07-31T00:24:46;44.30;88.10
64493;DHT22;50868;24.150;-110.320;2023-07-31T00:27:13;45.00;86.30
64493;DHT22;50868;24.150;-110.320;2023-07-31T00:29:40;43.70;90.30
64493;DHT22;50868;24.150;-110.320;2023-07-31T00:32:07;45.00;90.10
64493;DHT22;50868;24.150;-110.320;2023-07-31T00:34:34;43.00;91.10
64493;DHT22;50868;24.150;-110.320;2023-07-31T00:37:01;43.30;92.10
64493;DHT22;50868;24.150;-110.320;2023-07-31T00:39:30;43.40;92.00
64493;DHT22;50868;24.150;-110.320;2023-07-31T00:41:57;46.00;89.40
64493;DHT22;50868;24.150;-110.320;2023-07-31T00:44:24;47.90;85.30
64493;DHT22;50868;24.150;-110.320;2023-07-31T00:46:52;48.30;82.60
64493;DHT22;50868;24.150;-110.320;2023-07-31T00:49:19;48.90;79.70
64493;DHT22;50868;24.150;-110.320;2023-07-31T00:51:50;50.20;69.00
64493;DHT22;50868;24.150;-110.320;2023-07-31T00:54:19;50.30;66.40
64493;DHT22;50868;24.150;-110.320;2023-07-31T00:56:46;49.00;72.60
64493;DHT22;50868;24.150;-110.320;2023-07-31T00:59:15;47.50;77.50
64493;DHT22;50868;24.150;-110.320;2023-07-31T01:01:42;47.90;72.80
64493;DHT22;50868;24.150;-110.320;2023-07-31T01:04:09;47.30;69.60
64493;DHT22;50868;24.150;-110.320;2023-07-31T01:09:29;46.70;71.50
64493;DHT22;50868;24.150;-110.320;2023-07-31T01:12:02;47.20;68.70
64493;DHT22;50868;24.150;-110.320;2023-07-31T01:14:30;47.70;67.50
64493;DHT22;50868;24.150;-110.320;2023-07-31T01:16:57;46.90;68.60
64493;DHT22;50868;24.150;-110.320;2023-07-31T01:19:25;47.00;69.90
64493;DHT22;50868;24.150;-110.320;2023-07-31T01:27:26;45.50;72.00
64493;DHT22;50868;24.150;-110.320;2023-07-31T01:30:16;46.30;70.70
64493;DHT22;50868;24.150;-110.320;2023-07-31T01:32:48;44.80;74.60
64493;DHT22;50868;24.150;-110.320;2023-07-31T01:35:16;44.00;75.90
64493;DHT22;50868;24.150;-110.320;2023-07-31T01:37:43;43.10;78.90
64493;DHT22;50868;24.150;-110.320;2023-07-31T01:40:11;42.20;82.50
64493;DHT22;50868;24.150;-110.320;2023-07-31T01:42:38;41.10;83.70
64493;DHT22;50868;24.150;-110.320;2023-07-31T01:45:06;40.00;89.60
64493;DHT22;50868;24.150;-110.320;2023-07-31T01:47:33;39.00;92.10
64493;DHT22;50868;24.150;-110.320;2023-07-31T01:50:00;38.40;92.40
64493;DHT22;50868;24.150;-110.320;2023-07-31T01:52:28;37.60;93.80
64493;DHT22;50868;24.150;-110.320;2023-07-31T01:54:56;37.30;93.10
64493;DHT22;50868;24.150;-110.320;2023-07-31T01:57:23;37.70;91.90
64493;DHT22;50868;24.150;-110.320;2023-07-31T01:59:50;37.00;93.10
64493;DHT22;50868;24.150;-110.320;2023-07-31T02:02:20;36.30;90.60
64493;DHT22;50868;24.150;-110.320;2023-07-31T02:04:47;36.20;90.00
64493;DHT22;50868;24.150;-110.320;2023-07-31T02:07:14;36.20;90.90
64493;DHT22;50868;24.150;-110.320;2023-07-31T02:09:41;36.10;90.90
64493;DHT22;50868;24.150;-110.320;2023-07-31T02:12:10;35.70;91.30
64493;DHT22;50868;24.150;-110.320;2023-07-31T02:14:37;35.70;90.70
64493;DHT22;50868;24.150;-110.320;2023-07-31T02:17:05;35.70;84.60
64493;DHT22;50868;24.150;-110.320;2023-07-31T02:19:32;35.70;84.40
64493;DHT22;50868;24.150;-110.320;2023-07-31T02:21:59;35.60;84.50
64493;DHT22;50868;24.150;-110.320;2023-07-31T02:24:26;35.50;84.80
64493;DHT22;50868;24.150;-110.320;2023-07-31T02:26:53;35.30;85.20
64493;DHT22;50868;24.150;-110.320;2023-07-31T02:29:20;35.20;85.40
64493;DHT22;50868;24.150;-110.320;2023-07-31T02:31:47;35.20;85.40
64493;DHT22;50868;24.150;-110.320;2023-07-31T02:34:14;35.10;85.70
64493;DHT22;50868;24.150;-110.320;2023-07-31T02:36:41;35.00;86.00
64493;DHT22;50868;24.150;-110.320;2023-07-31T02:39:08;35.00;86.00
64493;DHT22;50868;24.150;-110.320;2023-07-31T02:41:35;34.90;86.60
64493;DHT22;50868;24.150;-110.320;2023-07-31T02:44:02;34.80;87.20
64493;DHT22;50868;24.150;-110.320;2023-07-31T02:46:29;34.60;88.20
64493;DHT22;50868;24.150;-110.320;2023-07-31T02:49:00;34.60;89.20
64493;DHT22;50868;24.150;-110.320;2023-07-31T02:51:27;34.50;89.90
64493;DHT22;50868;24.150;-110.320;2023-07-31T02:53:54;34.30;90.20
64493;DHT22;50868;24.150;-110.320;2023-07-31T02:56:21;34.20;90.90
64493;DHT22;50868;24.150;-110.320;2023-07-31T02:58:48;34.10;90.40
64493;DHT22;50868;24.150;-110.320;2023-07-31T03:01:16;34.00;90.60
64493;DHT22;50868;24.150;-110.320;2023-07-31T03:03:43;33.80;91.20
64493;DHT22;50868;24.150;-110.320;2023-07-31T03:06:10;33.70;91.30
64493;DHT22;50868;24.150;-110.320;2023-07-31T03:08:37;33.60;91.80
64493;DHT22;50868;24.150;-110.320;2023-07-31T03:11:03;33.60;91.60
64493;DHT22;50868;24.150;-110.320;2023-07-31T03:13:31;33.60;91.80
64493;DHT22;50868;24.150;-110.320;2023-07-31T03:15:58;33.60;91.90
64493;DHT22;50868;24.150;-110.320;2023-07-31T03:18:25;33.40;92.20
64493;DHT22;50868;24.150;-110.320;2023-07-31T03:20:52;33.40;92.60
64493;DHT22;50868;24.150;-110.320;2023-07-31T03:23:19;33.20;92.80
64493;DHT22;50868;24.150;-110.320;2023-07-31T03:26:03;33.00;93.20
64493;DHT22;50868;24.150;-110.320;2023-07-31T03:28:31;32.90;93.30
64493;DHT22;50868;24.150;-110.320;2023-07-31T03:30:58;32.80;93.40
64493;DHT22;50868;24.150;-110.320;2023-07-31T03:33:28;32.70;93.50
64493;DHT22;50868;24.150;-110.320;2023-07-31T03:35:55;32.70;93.40
64493;DHT22;50868;24.150;-110.320;2023-07-31T03:38:22;32.60;93.40
64493;DHT22;50868;24.150;-110.320;2023-07-31T03:40:49;32.60;93.20
64493;DHT22;50868;24.150;-110.320;2023-07-31T03:43:17;32.50;92.90
64493;DHT22;50868;24.150;-110.320;2023-07-31T03:45:44;32.50;92.80
64493;DHT22;50868;24.150;-110.320;2023-07-31T03:48:11;32.50;92.30
64493;DHT22;50868;24.150;-110.320;2023-07-31T03:50:38;32.40;92.40
64493;DHT22;50868;24.150;-110.320;2023-07-31T03:53:05;32.30;92.60
64493;DHT22;50868;24.150;-110.320;2023-07-31T03:55:32;32.10;92.80
64493;DHT22;50868;24.150;-110.320;2023-07-31T03:57:59;32.20;92.80
64493;DHT22;50868;24.150;-110.320;2023-07-31T04:00:27;32.10;92.70
64493;DHT22;50868;24.150;-110.320;2023-07-31T04:02:54;32.10;92.60
64493;DHT22;50868;24.150;-110.320;2023-07-31T04:05:21;32.10;92.90
64493;DHT22;50868;24.150;-110.320;2023-07-31T04:07:48;32.10;93.00
64493;DHT22;50868;24.150;-110.320;2023-07-31T04:10:15;32.00;93.20
64493;DHT22;50868;24.150;-110.320;2023-07-31T04:12:42;31.90;93.20
64493;DHT22;50868;24.150;-110.320;2023-07-31T04:15:09;31.90;93.10
64493;DHT22;50868;24.150;-110.320;2023-07-31T04:17:36;31.80;93.30
64493;DHT22;50868;24.150;-110.320;2023-07-31T04:20:04;31.90;93.20
64493;DHT22;50868;24.150;-110.320;2023-07-31T04:22:31;31.90;93.20
64493;DHT22;50868;24.150;-110.320;2023-07-31T04:24:58;31.80;93.40
64493;DHT22;50868;24.150;-110.320;2023-07-31T04:27:25;31.80;93.50
64493;DHT22;50868;24.150;-110.320;2023-07-31T04:29:52;31.70;93.70
64493;DHT22;50868;24.150;-110.320;2023-07-31T04:32:19;31.60;94.00
64493;DHT22;50868;24.150;-110.320;2023-07-31T04:34:47;31.60;93.90
64493;DHT22;50868;24.150;-110.320;2023-07-31T04:37:14;31.70;93.90
64493;DHT22;50868;24.150;-110.320;2023-07-31T04:39:41;31.60;94.10
64493;DHT22;50868;24.150;-110.320;2023-07-31T04:42:08;31.50;94.30
64493;DHT22;50868;24.150;-110.320;2023-07-31T04:44:36;31.60;94.20
64493;DHT22;50868;24.150;-110.320;2023-07-31T04:47:03;31.50;94.40
64493;DHT22;50868;24.150;-110.320;2023-07-31T04:49:31;31.60;94.30
64493;DHT22;50868;24.150;-110.320;2023-07-31T04:51:58;31.40;94.50
64493;DHT22;50868;24.150;-110.320;2023-07-31T04:54:25;31.50;94.50
64493;DHT22;50868;24.150;-110.320;2023-07-31T04:56:52;31.60;94.60
64493;DHT22;50868;24.150;-110.320;2023-07-31T04:59:19;31.50;94.70
64493;DHT22;50868;24.150;-110.320;2023-07-31T05:01:46;31.50;94.70
64493;DHT22;50868;24.150;-110.320;2023-07-31T05:04:14;31.40;94.90
64493;DHT22;50868;24.150;-110.320;2023-07-31T05:06:42;31.50;94.70
64493;DHT22;50868;24.150;-110.320;2023-07-31T05:09:09;31.50;94.80
64493;DHT22;50868;24.150;-110.320;2023-07-31T05:11:36;31.40;94.80
64493;DHT22;50868;24.150;-110.320;2023-07-31T05:14:03;31.20;94.80
64493;DHT22;50868;24.150;-110.320;2023-07-31T05:16:30;31.30;95.00
64493;DHT22;50868;24.150;-110.320;2023-07-31T05:18:57;31.40;95.20
64493;DHT22;50868;24.150;-110.320;2023-07-31T05:21:24;31.40;95.30
64493;DHT22;50868;24.150;-110.320;2023-07-31T05:23:52;31.40;95.20
64493;DHT22;50868;24.150;-110.320;2023-07-31T05:26:19;31.30;95.40
64493;DHT22;50868;24.150;-110.320;2023-07-31T05:28:46;31.30;95.50
64493;DHT22;50868;24.150;-110.320;2023-07-31T05:31:13;31.20;95.60
64493;DHT22;50868;24.150;-110.320;2023-07-31T05:33:40;31.10;95.70
64493;DHT22;50868;24.150;-110.320;2023-07-31T05:36:07;31.20;95.60
64493;DHT22;50868;24.150;-110.320;2023-07-31T05:38:35;31.10;95.60
64493;DHT22;50868;24.150;-110.320;2023-07-31T05:41:02;31.10;95.50
64493;DHT22;50868;24.150;-110.320;2023-07-31T05:43:29;31.10;95.50
64493;DHT22;50868;24.150;-110.320;2023-07-31T05:45:57;31.10;95.40
64493;DHT22;50868;24.150;-110.320;2023-07-31T05:48:24;31.10;95.40
64493;DHT22;50868;24.150;-110.320;2023-07-31T05:50:51;31.10;95.60
64493;DHT22;50868;24.150;-110.320;2023-07-31T05:53:18;31.00;95.60
64493;DHT22;50868;24.150;-110.320;2023-07-31T05:55:45;31.00;95.60
64493;DHT22;50868;24.150;-110.320;2023-07-31T05:58:12;31.00;95.50
64493;DHT22;50868;24.150;-110.320;2023-07-31T06:00:39;31.00;95.50
64493;DHT22;50868;24.150;-110.320;2023-07-31T06:03:07;31.10;95.50
64493;DHT22;50868;24.150;-110.320;2023-07-31T06:05:34;31.10;95.50
64493;DHT22;50868;24.150;-110.320;2023-07-31T06:08:01;31.10;95.40
64493;DHT22;50868;24.150;-110.320;2023-07-31T06:10:29;31.00;95.40
64493;DHT22;50868;24.150;-110.320;2023-07-31T06:12:56;31.00;95.50
64493;DHT22;50868;24.150;-110.320;2023-07-31T06:15:23;31.10;95.40
64493;DHT22;50868;24.150;-110.320;2023-07-31T06:17:51;31.10;95.40
64493;DHT22;50868;24.150;-110.320;2023-07-31T06:20:18;31.10;95.20
64493;DHT22;50868;24.150;-110.320;2023-07-31T06:22:45;31.00;95.30
64493;DHT22;50868;24.150;-110.320;2023-07-31T06:25:12;30.90;95.50
64493;DHT22;50868;24.150;-110.320;2023-07-31T06:27:39;30.70;95.80
64493;DHT22;50868;24.150;-110.320;2023-07-31T06:30:07;30.60;95.90
64493;DHT22;50868;24.150;-110.320;2023-07-31T06:32:34;30.70;96.00
64493;DHT22;50868;24.150;-110.320;2023-07-31T06:35:02;30.70;96.00
64493;DHT22;50868;24.150;-110.320;2023-07-31T06:37:29;30.70;96.10
64493;DHT22;50868;24.150;-110.320;2023-07-31T06:39:56;30.70;96.10
64493;DHT22;50868;24.150;-110.320;2023-07-31T06:42:23;30.60;96.20
64493;DHT22;50868;24.150;-110.320;2023-07-31T06:44:51;30.60;96.30
64493;DHT22;50868;24.150;-110.320;2023-07-31T06:47:18;30.60;96.30
64493;DHT22;50868;24.150;-110.320;2023-07-31T06:49:45;30.60;96.40
64493;DHT22;50868;24.150;-110.320;2023-07-31T06:52:12;30.50;96.50
64493;DHT22;50868;24.150;-110.320;2023-07-31T06:54:39;30.60;96.50
64493;DHT22;50868;24.150;-110.320;2023-07-31T06:57:06;30.70;96.50
64493;DHT22;50868;24.150;-110.320;2023-07-31T06:59:34;30.70;96.50
64493;DHT22;50868;24.150;-110.320;2023-07-31T07:02:01;30.60;96.60
64493;DHT22;50868;24.150;-110.320;2023-07-31T07:04:28;30.60;97.00
64493;DHT22;50868;24.150;-110.320;2023-07-31T07:06:55;30.70;96.80
64493;DHT22;50868;24.150;-110.320;2023-07-31T07:09:22;30.50;96.90
64493;DHT22;50868;24.150;-110.320;2023-07-31T07:11:49;30.50;97.00
64493;DHT22;50868;24.150;-110.320;2023-07-31T07:14:16;30.40;97.30
64493;DHT22;50868;24.150;-110.320;2023-07-31T07:16:43;30.40;97.40
64493;DHT22;50868;24.150;-110.320;2023-07-31T07:19:10;30.40;97.40
64493;DHT22;50868;24.150;-110.320;2023-07-31T07:21:37;30.50;97.40
64493;DHT22;50868;24.150;-110.320;2023-07-31T07:24:04;30.50;97.50
64493;DHT22;50868;24.150;-110.320;2023-07-31T07:26:32;30.30;97.70
64493;DHT22;50868;24.150;-110.320;2023-07-31T07:28:59;30.30;97.80
64493;DHT22;50868;24.150;-110.320;2023-07-31T07:31:29;30.30;98.00
64493;DHT22;50868;24.150;-110.320;2023-07-31T07:33:56;30.30;98.00
64493;DHT22;50868;24.150;-110.320;2023-07-31T07:36:23;30.30;98.00
64493;DHT22;50868;24.150;-110.320;2023-07-31T07:38:50;30.20;98.10
64493;DHT22;50868;24.150;-110.320;2023-07-31T07:41:17;30.20;98.10
64493;DHT22;50868;24.150;-110.320;2023-07-31T07:43:44;30.30;98.00
64493;DHT22;50868;24.150;-110.320;2023-07-31T07:46:11;30.30;98.20
64493;DHT22;50868;24.150;-110.320;2023-07-31T07:48:38;30.30;98.00
64493;DHT22;50868;24.150;-110.320;2023-07-31T07:51:05;30.20;98.30
64493;DHT22;50868;24.150;-110.320;2023-07-31T07:53:32;30.20;98.20
64493;DHT22;50868;24.150;-110.320;2023-07-31T07:55:59;30.20;98.10
64493;DHT22;50868;24.150;-110.320;2023-07-31T07:58:26;30.20;98.20
64493;DHT22;50868;24.150;-110.320;2023-07-31T08:00:53;30.10;98.20
64493;DHT22;50868;24.150;-110.320;2023-07-31T08:03:20;30.00;98.30
64493;DHT22;50868;24.150;-110.320;2023-07-31T08:05:47;30.20;98.10
64493;DHT22;50868;24.150;-110.320;2023-07-31T08:08:16;30.20;98.00
64493;DHT22;50868;24.150;-110.320;2023-07-31T08:10:43;30.20;98.10
64493;DHT22;50868;24.150;-110.320;2023-07-31T08:13:11;30.20;98.30
64493;DHT22;50868;24.150;-110.320;2023-07-31T08:15:40;30.00;98.20
64493;DHT22;50868;24.150;-110.320;2023-07-31T08:18:07;30.10;98.20
64493;DHT22;50868;24.150;-110.320;2023-07-31T08:20:35;30.10;98.10
64493;DHT22;50868;24.150;-110.320;2023-07-31T08:23:02;30.10;98.10
64493;DHT22;50868;24.150;-110.320;2023-07-31T08:25:29;30.10;98.20
64493;DHT22;50868;24.150;-110.320;2023-07-31T08:27:56;30.20;98.10
64493;DHT22;50868;24.150;-110.320;2023-07-31T08:30:23;30.20;98.10
64493;DHT22;50868;24.150;-110.320;2023-07-31T08:32:50;30.20;98.20
64493;DHT22;50868;24.150;-110.320;2023-07-31T08:35:17;30.10;98.30
64493;DHT22;50868;24.150;-110.320;2023-07-31T08:37:44;30.10;98.20
64493;DHT22;50868;24.150;-110.320;2023-07-31T08:40:12;30.00;98.40
64493;DHT22;50868;24.150;-110.320;2023-07-31T08:42:46;30.10;98.40
64493;DHT22;50868;24.150;-110.320;2023-07-31T08:45:15;30.10;98.40
64493;DHT22;50868;24.150;-110.320;2023-07-31T08:47:49;30.10;98.40
64493;DHT22;50868;24.150;-110.320;2023-07-31T08:50:19;30.20;98.30
64493;DHT22;50868;24.150;-110.320;2023-07-31T08:52:47;30.10;98.40
64493;DHT22;50868;24.150;-110.320;2023-07-31T08:55:14;30.10;98.30
64493;DHT22;50868;24.150;-110.320;2023-07-31T08:57:42;30.00;98.50
64493;DHT22;50868;24.150;-110.320;2023-07-31T09:00:11;30.00;98.70
64493;DHT22;50868;24.150;-110.320;2023-07-31T09:03:02;30.00;98.40
64493;DHT22;50868;24.150;-110.320;2023-07-31T09:05:31;29.90;98.60
64493;DHT22;50868;24.150;-110.320;2023-07-31T09:07:58;29.90;98.60
64493;DHT22;50868;24.150;-110.320;2023-07-31T09:10:26;29.90;99.00
64493;DHT22;50868;24.150;-110.320;2023-07-31T09:12:53;29.90;98.60
64493;DHT22;50868;24.150;-110.320;2023-07-31T09:15:23;29.90;98.60
64493;DHT22;50868;24.150;-110.320;2023-07-31T09:17:59;29.90;98.70
64493;DHT22;50868;24.150;-110.320;2023-07-31T09:20:30;29.90;98.80
64493;DHT22;50868;24.150;-110.320;2023-07-31T09:23:06;29.90;98.70
64493;DHT22;50868;24.150;-110.320;2023-07-31T09:25:35;29.90;98.80
64493;DHT22;50868;24.150;-110.320;2023-07-31T09:28:09;29.90;98.90
64493;DHT22;50868;24.150;-110.320;2023-07-31T09:30:51;30.00;98.80
64493;DHT22;50868;24.150;-110.320;2023-07-31T09:33:19;30.00;98.60
64493;DHT22;50868;24.150;-110.320;2023-07-31T09:35:47;29.90;99.00
64493;DHT22;50868;24.150;-110.320;2023-07-31T09:38:17;29.90;99.00
64493;DHT22;50868;24.150;-110.320;2023-07-31T09:40:46;30.00;98.80
64493;DHT22;50868;24.150;-110.320;2023-07-31T09:43:18;29.90;99.00
64493;DHT22;50868;24.150;-110.320;2023-07-31T09:45:46;29.90;99.30
64493;DHT22;50868;24.150;-110.320;2023-07-31T09:48:15;29.80;99.50
64493;DHT22;50868;24.150;-110.320;2023-07-31T09:50:45;29.80;99.70
64493;DHT22;50868;24.150;-110.320;2023-07-31T09:53:13;29.80;99.80
64493;DHT22;50868;24.150;-110.320;2023-07-31T09:55:41;29.90;99.90
64493;DHT22;50868;24.150;-110.320;2023-07-31T09:58:11;29.70;99.90
64493;DHT22;50868;24.150;-110.320;2023-07-31T10:00:38;29.90;99.90
64493;DHT22;50868;24.150;-110.320;2023-07-31T10:03:08;29.90;99.90
64493;DHT22;50868;24.150;-110.320;2023-07-31T10:08:04;29.80;99.90
64493;DHT22;50868;24.150;-110.320;2023-07-31T10:10:33;29.90;99.80
64493;DHT22;50868;24.150;-110.320;2023-07-31T10:13:02;29.80;99.70
64493;DHT22;50868;24.150;-110.320;2023-07-31T10:15:31;29.80;99.70
64493;DHT22;50868;24.150;-110.320;2023-07-31T10:17:58;29.70;99.70
64493;DHT22;50868;24.150;-110.320;2023-07-31T10:20:26;29.60;99.60
64493;DHT22;50868;24.150;-110.320;2023-07-31T10:22:55;29.90;99.30
64493;DHT22;50868;24.150;-110.320;2023-07-31T10:25:24;29.80;99.10
64493;DHT22;50868;24.150;-110.320;2023-07-31T10:27:53;29.80;98.90
64493;DHT22;50868;24.150;-110.320;2023-07-31T10:30:31;29.80;99.00
64493;DHT22;50868;24.150;-110.320;2023-07-31T10:33:00;29.60;99.30
64493;DHT22;50868;24.150;-110.320;2023-07-31T10:35:28;29.50;99.30
64493;DHT22;50868;24.150;-110.320;2023-07-31T10:37:55;29.60;99.20
64493;DHT22;50868;24.150;-110.320;2023-07-31T10:40:27;29.50;99.40
64493;DHT22;50868;24.150;-110.320;2023-07-31T10:42:55;29.50;99.50
64493;DHT22;50868;24.150;-110.320;2023-07-31T10:45:32;29.50;99.50
64493;DHT22;50868;24.150;-110.320;2023-07-31T10:48:01;29.50;99.60
64493;DHT22;50868;24.150;-110.320;2023-07-31T10:50:29;29.50;99.70
64493;DHT22;50868;24.150;-110.320;2023-07-31T10:52:59;29.50;99.70
64493;DHT22;50868;24.150;-110.320;2023-07-31T10:58:18;29.40;99.90
64493;DHT22;50868;24.150;-110.320;2023-07-31T11:00:45;29.30;99.90
64493;DHT22;50868;24.150;-110.320;2023-07-31T11:03:19;29.30;99.90
64493;DHT22;50868;24.150;-110.320;2023-07-31T11:06:04;29.30;99.90
64493;DHT22;50868;24.150;-110.320;2023-07-31T11:08:33;29.30;99.90
64493;DHT22;50868;24.150;-110.320;2023-07-31T11:11:14;29.30;99.90
64493;DHT22;50868;24.150;-110.320;2023-07-31T11:16:10;29.20;99.90
64493;DHT22;50868;24.150;-110.320;2023-07-31T11:18:40;29.20;99.90
64493;DHT22;50868;24.150;-110.320;2023-07-31T11:21:08;29.40;99.90
64493;DHT22;50868;24.150;-110.320;2023-07-31T11:23:38;29.20;99.90
64493;DHT22;50868;24.150;-110.320;2023-07-31T11:26:06;29.20;99.90
64493;DHT22;50868;24.150;-110.320;2023-07-31T11:28:35;29.20;99.90
64493;DHT22;50868;24.150;-110.320;2023-07-31T11:31:02;29.30;99.90
64493;DHT22;50868;24.150;-110.320;2023-07-31T11:33:29;29.20;99.90
64493;DHT22;50868;24.150;-110.320;2023-07-31T11:35:57;29.30;99.90
64493;DHT22;50868;24.150;-110.320;2023-07-31T11:38:28;29.20;99.90
64493;DHT22;50868;24.150;-110.320;2023-07-31T11:41:00;29.10;99.90
64493;DHT22;50868;24.150;-110.320;2023-07-31T11:43:29;29.10;99.90
64493;DHT22;50868;24.150;-110.320;2023-07-31T11:45:58;29.20;99.90
64493;DHT22;50868;24.150;-110.320;2023-07-31T11:48:27;29.10;99.90
64493;DHT22;50868;24.150;-110.320;2023-07-31T11:50:59;29.10;99.90
64493;DHT22;50868;24.150;-110.320;2023-07-31T11:53:41;29.10;99.90
64493;DHT22;50868;24.150;-110.320;2023-07-31T17:09:58;35.90;93.10
64493;DHT22;50868;24.150;-110.320;2023-07-31T17:12:25;36.00;87.60
64493;DHT22;50868;24.150;-110.320;2023-07-31T17:14:52;36.10;87.00
64493;DHT22;50868;24.150;-110.320;2023-07-31T17:17:19;36.20;83.90
64493;DHT22;50868;24.150;-110.320;2023-07-31T17:19:50;36.60;84.80
64493;DHT22;50868;24.150;-110.320;2023-07-31T17:22:17;36.70;90.10
64493;DHT22;50868;24.150;-110.320;2023-07-31T17:24:44;36.90;87.10
64493;DHT22;50868;24.150;-110.320;2023-07-31T17:27:11;36.80;90.40
64493;DHT22;50868;24.150;-110.320;2023-07-31T17:29:38;36.90;88.30
64493;DHT22;50868;24.150;-110.320;2023-07-31T17:32:06;36.90;86.70
64493;DHT22;50868;24.150;-110.320;2023-07-31T17:34:33;37.00;87.50
64493;DHT22;50868;24.150;-110.320;2023-07-31T17:37:00;37.00;84.40
64493;DHT22;50868;24.150;-110.320;2023-07-31T17:42:49;36.70;89.60
64493;DHT22;50868;24.150;-110.320;2023-07-31T17:45:35;36.80;90.20
64493;DHT22;50868;24.150;-110.320;2023-07-31T17:48:02;36.60;92.30
64493;DHT22;50868;24.150;-110.320;2023-07-31T17:50:30;36.60;93.90
64493;DHT22;50868;24.150;-110.320;2023-07-31T17:53:15;36.50;93.60
64493;DHT22;50868;24.150;-110.320;2023-07-31T17:55:42;36.30;93.20
64493;DHT22;50868;24.150;-110.320;2023-07-31T17:58:09;36.20;93.40
64493;DHT22;50868;24.150;-110.320;2023-07-31T18:00:36;36.30;92.00
64493;DHT22;50868;24.150;-110.320;2023-07-31T18:06:06;36.20;95.80
64493;DHT22;50868;24.150;-110.320;2023-07-31T18:08:33;36.30;96.70
64493;DHT22;50868;24.150;-110.320;2023-07-31T18:11:01;36.20;96.40
64493;DHT22;50868;24.150;-110.320;2023-07-31T18:13:29;36.20;96.00
64493;DHT22;50868;24.150;-110.320;2023-07-31T18:15:56;36.30;95.80
64493;DHT22;50868;24.150;-110.320;2023-07-31T18:18:24;36.00;95.80
64493;DHT22;50868;24.150;-110.320;2023-07-31T18:20:51;36.00;96.50
64493;DHT22;50868;24.150;-110.320;2023-07-31T18:23:18;36.10;96.60
64493;DHT22;50868;24.150;-110.320;2023-07-31T18:25:47;36.00;95.70
64493;DHT22;50868;24.150;-110.320;2023-07-31T18:28:14;36.00;96.30
64493;DHT22;50868;24.150;-110.320;2023-07-31T18:30:41;35.90;95.50
64493;DHT22;50868;24.150;-110.320;2023-07-31T18:33:27;35.70;94.70
64493;DHT22;50868;24.150;-110.320;2023-07-31T18:35:54;35.50;94.20
64493;DHT22;50868;24.150;-110.320;2023-07-31T18:38:21;35.20;94.60
64493;DHT22;50868;24.150;-110.320;2023-07-31T18:40:49;35.40;93.70
64493;DHT22;50868;24.150;-110.320;2023-07-31T18:43:16;35.50;94.30
64493;DHT22;50868;24.150;-110.320;2023-07-31T18:45:43;35.50;94.20
64493;DHT22;50868;24.150;-110.320;2023-07-31T18:48:10;35.70;95.00
64493;DHT22;50868;24.150;-110.320;2023-07-31T18:50:41;35.80;95.60
64493;DHT22;50868;24.150;-110.320;2023-07-31T18:53:11;35.80;96.10
64493;DHT22;50868;24.150;-110.320;2023-07-31T19:02:13;35.40;98.20
64493;DHT22;50868;24.150;-110.320;2023-07-31T19:04:40;35.40;99.90
64493;DHT22;50868;24.150;-110.320;2023-07-31T19:10:29;35.20;99.90
64493;DHT22;50868;24.150;-110.320;2023-07-31T19:13:14;35.40;99.90
64493;DHT22;50868;24.150;-110.320;2023-07-31T19:15:42;35.60;99.90
64493;DHT22;50868;24.150;-110.320;2023-07-31T19:18:09;35.70;99.90
64493;DHT22;50868;24.150;-110.320;2023-07-31T19:20:36;35.90;99.80
64493;DHT22;50868;24.150;-110.320;2023-07-31T19:23:03;35.90;99.50
64493;DHT22;50868;24.150;-110.320;2023-07-31T19:25:30;36.00;99.10
64493;DHT22;50868;24.150;-110.320;2023-07-31T19:27:57;36.30;99.60
64493;DHT22;50868;24.150;-110.320;2023-07-31T19:30:24;36.50;98.40
64493;DHT22;50868;24.150;-110.320;2023-07-31T19:32:52;36.70;98.30
64493;DHT22;50868;24.150;-110.320;2023-07-31T19:35:21;36.90;97.80
64493;DHT22;50868;24.150;-110.320;2023-07-31T19:37:48;37.00;97.60
64493;DHT22;50868;24.150;-110.320;2023-07-31T19:40:15;37.10;97.10
64493;DHT22;50868;24.150;-110.320;2023-07-31T19:42:43;37.20;97.20
64493;DHT22;50868;24.150;-110.320;2023-07-31T19:45:10;37.20;97.20
64493;DHT22;50868;24.150;-110.320;2023-07-31T19:47:39;37.00;97.60
64493;DHT22;50868;24.150;-110.320;2023-07-31T19:50:06;37.00;97.00
64493;DHT22;50868;24.150;-110.320;2023-07-31T19:52:34;37.00;96.50
64493;DHT22;50868;24.150;-110.320;2023-07-31T19:58:04;36.70;96.60
64493;DHT22;50868;24.150;-110.320;2023-07-31T20:00:31;36.90;95.20
64493;DHT22;50868;24.150;-110.320;2023-07-31T20:02:58;36.90;93.60
64493;DHT22;50868;24.150;-110.320;2023-07-31T20:05:26;37.10;93.30
64493;DHT22;50868;24.150;-110.320;2023-07-31T20:07:53;37.00;93.70
64493;DHT22;50868;24.150;-110.320;2023-07-31T20:10:20;37.10;94.50
64493;DHT22;50868;24.150;-110.320;2023-07-31T20:12:47;36.90;94.60
64493;DHT22;50868;24.150;-110.320;2023-07-31T20:15:32;37.00;94.20
64493;DHT22;50868;24.150;-110.320;2023-07-31T20:17:59;37.10;93.30
64493;DHT22;50868;24.150;-110.320;2023-07-31T20:20:26;37.00;95.40
64493;DHT22;50868;24.150;-110.320;2023-07-31T20:22:54;37.10;95.80
64493;DHT22;50868;24.150;-110.320;2023-07-31T20:25:22;37.20;94.50
64493;DHT22;50868;24.150;-110.320;2023-07-31T20:27:49;37.10;94.20
64493;DHT22;50868;24.150;-110.320;2023-07-31T20:30:16;37.00;95.10
64493;DHT22;50868;24.150;-110.320;2023-07-31T20:32:43;37.40;94.30
64493;DHT22;50868;24.150;-110.320;2023-07-31T20:35:10;37.40;95.40
64493;DHT22;50868;24.150;-110.320;2023-07-31T20:37:56;37.50;94.10
64493;DHT22;50868;24.150;-110.320;2023-07-31T20:40:23;37.40;95.50
64493;DHT22;50868;24.150;-110.320;2023-07-31T20:42:58;37.30;94.90